sensor_id;sensor_type;location;lat;lon;timestamp;pressure;altitude;pressure_sealevel;temperature;humidity
45253;BME280;63171;50.520;30.486;2023-06-24T00:02:24;99651.53;;;28.05;41.47
45253;BME280;63171;50.520;30.486;2023-06-24T00:03:15;99649.69;;;28.06;41.64
45253;BME280;63171;50.520;30.486;2023-06-24T00:04:06;99651.31;;;28.07;41.76
45253;BME280;63171;50.520;30.486;2023-06-24T00:04:57;99648.63;;;28.07;41.66
45253;BME280;63171;50.520;30.486;2023-06-24T00:05:49;99651.09;;;28.08;41.73
45253;BME280;63171;50.520;30.486;2023-06-24T00:06:40;99643.84;;;28.09;41.65
45253;BME280;63171;50.520;30.486;2023-06-24T00:07:30;99649.25;;;28.09;41.86
45253;BME280;63171;50.520;30.486;2023-06-24T00:08:21;99650.28;;;28.08;41.65
45253;BME280;63171;50.520;30.486;2023-06-24T00:09:11;99647.59;;;28.08;41.71
45253;BME280;63171;50.520;30.486;2023-06-24T00:10:02;99652.16;;;28.07;41.74
45253;BME280;63171;50.520;30.486;2023-06-24T00:10:54;99646.75;;;28.07;41.64
45253;BME280;63171;50.520;30.486;2023-06-24T00:11:46;99650.72;;;28.05;41.81
45253;BME280;63171;50.520;30.486;2023-06-24T00:12:35;99653.59;;;28.03;41.77
45253;BME280;63171;50.520;30.486;2023-06-24T00:13:28;99655.25;;;28.04;41.83
45253;BME280;63171;50.520;30.486;2023-06-24T00:14:18;99650.09;;;28.03;41.95
45253;BME280;63171;50.520;30.486;2023-06-24T00:15:10;99645.53;;;28.03;41.94
45253;BME280;63171;50.520;30.486;2023-06-24T00:16:00;99651.78;;;27.97;41.98
45253;BME280;63171;50.520;30.486;2023-06-24T00:16:51;99649.09;;;27.97;42.05
45253;BME280;63171;50.520;30.486;2023-06-24T00:17:41;99648.88;;;27.98;42.15
45253;BME280;63171;50.520;30.486;2023-06-24T00:18:31;99647.81;;;28.00;42.17
45253;BME280;63171;50.520;30.486;2023-06-24T00:19:23;99647.59;;;28.01;42.19
45253;BME280;63171;50.520;30.486;2023-06-24T00:20:14;99644.09;;;28.01;42.38
45253;BME280;63171;50.520;30.486;2023-06-24T00:21:04;99643.25;;;28.00;42.53
45253;BME280;63171;50.520;30.486;2023-06-24T00:21:54;99650.28;;;28.01;42.44
45253;BME280;63171;50.520;30.486;2023-06-24T00:22:46;99651.34;;;28.00;42.46
45253;BME280;63171;50.520;30.486;2023-06-24T00:23:37;99650.50;;;28.00;42.41
45253;BME280;63171;50.520;30.486;2023-06-24T00:24:27;99650.50;;;28.00;42.45
45253;BME280;63171;50.520;30.486;2023-06-24T00:25:19;99648.88;;;27.98;42.59
45253;BME280;63171;50.520;30.486;2023-06-24T00:26:10;99648.03;;;27.98;42.72
45253;BME280;63171;50.520;30.486;2023-06-24T00:27:01;99651.78;;;27.97;42.52
45253;BME280;63171;50.520;30.486;2023-06-24T00:27:51;99650.94;;;27.96;42.58
45253;BME280;63171;50.520;30.486;2023-06-24T00:28:41;99646.59;;;27.95;42.71
45253;BME280;63171;50.520;30.486;2023-06-24T00:29:31;99649.72;;;27.92;42.83
45253;BME280;63171;50.520;30.486;2023-06-24T00:30:21;99652.81;;;27.89;42.93
45253;BME280;63171;50.520;30.486;2023-06-24T00:31:12;99652.44;;;27.86;43.04
45253;BME280;63171;50.520;30.486;2023-06-24T00:32:01;99656.38;;;27.83;43.18
45253;BME280;63171;50.520;30.486;2023-06-24T00:32:52;99652.03;;;27.82;43.35
45253;BME280;63171;50.520;30.486;2023-06-24T00:33:42;99656.38;;;27.83;43.26
45253;BME280;63171;50.520;30.486;2023-06-24T00:34:33;99653.47;;;27.85;43.50
45253;BME280;63171;50.520;30.486;2023-06-24T00:35:23;99648.91;;;27.85;43.68
45253;BME280;63171;50.520;30.486;2023-06-24T00:36:14;99651.59;;;27.85;43.59
45253;BME280;63171;50.520;30.486;2023-06-24T00:37:04;99644.56;;;27.84;43.54
45253;BME280;63171;50.520;30.486;2023-06-24T00:37:54;99647.47;;;27.83;43.69
45253;BME280;63171;50.520;30.486;2023-06-24T00:38:47;99646.88;;;27.81;43.43
45253;BME280;63171;50.520;30.486;2023-06-24T00:39:39;99642.09;;;27.76;43.81
45253;BME280;63171;50.520;30.486;2023-06-24T00:40:29;99641.28;;;27.76;43.51
45253;BME280;63171;50.520;30.486;2023-06-24T00:41:22;99645.84;;;27.75;43.91
45253;BME280;63171;50.520;30.486;2023-06-24T00:42:12;99644.41;;;27.73;43.95
45253;BME280;63171;50.520;30.486;2023-06-24T00:43:03;99641.28;;;27.76;43.91
45253;BME280;63171;50.520;30.486;2023-06-24T00:43:55;99640.47;;;27.75;44.10
45253;BME280;63171;50.520;30.486;2023-06-24T00:44:47;99638.19;;;27.72;44.09
45253;BME280;63171;50.520;30.486;2023-06-24T00:45:38;99635.50;;;27.72;44.08
45253;BME280;63171;50.520;30.486;2023-06-24T00:46:30;99634.91;;;27.70;44.02
45253;BME280;63171;50.520;30.486;2023-06-24T00:47:21;99631.38;;;27.70;44.41
45253;BME280;63171;50.520;30.486;2023-06-24T00:48:13;99635.94;;;27.69;44.30
45253;BME280;63171;50.520;30.486;2023-06-24T00:49:03;99627.03;;;27.68;44.41
45253;BME280;63171;50.520;30.486;2023-06-24T00:49:54;99624.56;;;27.67;44.42
45253;BME280;63171;50.520;30.486;2023-06-24T00:50:44;99630.34;;;27.64;44.50
45253;BME280;63171;50.520;30.486;2023-06-24T00:51:35;99621.41;;;27.63;44.65
45253;BME280;63171;50.520;30.486;2023-06-24T00:52:25;99623.28;;;27.63;44.56
45253;BME280;63171;50.520;30.486;2023-06-24T00:53:18;99620.59;;;27.63;44.74
45253;BME280;63171;50.520;30.486;2023-06-24T00:54:08;99619.97;;;27.61;44.24
45253;BME280;63171;50.520;30.486;2023-06-24T00:55:00;99622.06;;;27.59;44.76
45253;BME280;63171;50.520;30.486;2023-06-24T00:55:53;99615.03;;;27.58;44.58
45253;BME280;63171;50.520;30.486;2023-06-24T00:56:47;99622.06;;;27.59;44.84
45253;BME280;63171;50.520;30.486;2023-06-24T00:57:38;99614.41;;;27.56;44.94
45253;BME280;63171;50.520;30.486;2023-06-24T00:58:29;99612.78;;;27.55;44.82
45253;BME280;63171;50.520;30.486;2023-06-24T00:59:19;99611.94;;;27.54;44.98
45253;BME280;63171;50.520;30.486;2023-06-24T01:00:11;99618.38;;;27.53;44.63
45253;BME280;63171;50.520;30.486;2023-06-24T01:01:03;99615.88;;;27.52;44.82
45253;BME280;63171;50.520;30.486;2023-06-24T01:01:55;99614.63;;;27.48;44.84
45253;BME280;63171;50.520;30.486;2023-06-24T01:02:44;99616.53;;;27.41;45.10
45253;BME280;63171;50.520;30.486;2023-06-24T01:03:37;99625.63;;;27.39;45.19
45253;BME280;63171;50.520;30.486;2023-06-24T01:04:28;99621.69;;;27.42;45.11
45253;BME280;63171;50.520;30.486;2023-06-24T01:05:19;99608.03;;;27.44;45.17
45253;BME280;63171;50.520;30.486;2023-06-24T01:06:13;99615.06;;;27.45;45.01
45253;BME280;63171;50.520;30.486;2023-06-24T01:07:05;99615.69;;;27.47;45.14
45253;BME280;63171;50.520;30.486;2023-06-24T01:07:55;99614.03;;;27.46;45.33
45253;BME280;63171;50.520;30.486;2023-06-24T01:08:47;99609.69;;;27.45;45.29
45253;BME280;63171;50.520;30.486;2023-06-24T01:09:40;99608.88;;;27.44;45.13
45253;BME280;63171;50.520;30.486;2023-06-24T01:10:31;99613.41;;;27.44;45.27
45253;BME280;63171;50.520;30.486;2023-06-24T01:11:22;99611.78;;;27.43;45.46
45253;BME280;63171;50.520;30.486;2023-06-24T01:12:13;99608.47;;;27.41;45.27
45253;BME280;63171;50.520;30.486;2023-06-24T01:13:04;99611.38;;;27.39;45.38
45253;BME280;63171;50.520;30.486;2023-06-24T01:13:54;99608.03;;;27.37;45.47
45253;BME280;63171;50.520;30.486;2023-06-24T01:14:45;99615.50;;;27.35;45.63
45253;BME280;63171;50.520;30.486;2023-06-24T01:15:34;99614.09;;;27.26;45.54
45253;BME280;63171;50.520;30.486;2023-06-24T01:16:32;99607.44;;;27.28;45.77
45253;BME280;63171;50.520;30.486;2023-06-24T01:17:27;99611.78;;;27.29;45.64
45253;BME280;63171;50.520;30.486;2023-06-24T01:18:26;99610.75;;;27.30;45.90
45253;BME280;63171;50.520;30.486;2023-06-24T01:19:37;99609.09;;;27.29;45.67
45253;BME280;63171;50.520;30.486;2023-06-24T01:20:37;99610.16;;;27.28;45.89
45253;BME280;63171;50.520;30.486;2023-06-24T01:21:40;99613.03;;;27.27;45.85
45253;BME280;63171;50.520;30.486;2023-06-24T01:23:06;99612.63;;;27.23;45.90
45253;BME280;63171;50.520;30.486;2023-06-24T01:24:30;99614.69;;;27.21;46.12
45253;BME280;63171;50.520;30.486;2023-06-24T01:25:34;99612.44;;;27.18;45.97
45253;BME280;63171;50.520;30.486;2023-06-24T01:26:59;99615.94;;;27.19;46.20
45253;BME280;63171;50.520;30.486;2023-06-24T01:28:14;99607.25;;;27.17;46.20
45253;BME280;63171;50.520;30.486;2023-06-24T01:29:34;99611.00;;;27.16;46.37
45253;BME280;63171;50.520;30.486;2023-06-24T01:30:38;99614.50;;;27.16;46.23
45253;BME280;63171;50.520;30.486;2023-06-24T01:31:42;99609.94;;;27.17;46.53
45253;BME280;63171;50.520;30.486;2023-06-24T01:32:40;99612.66;;;27.17;46.66
45253;BME280;63171;50.520;30.486;2023-06-24T01:33:39;99616.97;;;27.18;46.47
45253;BME280;63171;50.520;30.486;2023-06-24T01:34:35;99616.16;;;27.17;46.59
45253;BME280;63171;50.520;30.486;2023-06-24T01:35:31;99619.47;;;27.19;46.47
45253;BME280;63171;50.520;30.486;2023-06-24T01:36:28;99614.69;;;27.21;46.68
45253;BME280;63171;50.520;30.486;2023-06-24T01:37:31;99616.34;;;27.22;46.62
45253;BME280;63171;50.520;30.486;2023-06-24T01:38:24;99617.59;;;27.20;46.56
45253;BME280;63171;50.520;30.486;2023-06-24T01:39:17;99620.06;;;27.21;46.92
45253;BME280;63171;50.520;30.486;2023-06-24T01:40:11;99615.53;;;27.22;46.91
45253;BME280;63171;50.520;30.486;2023-06-24T01:41:03;99621.72;;;27.22;46.91
45253;BME280;63171;50.520;30.486;2023-06-24T01:41:59;99624.19;;;27.24;46.49
45253;BME280;63171;50.520;30.486;2023-06-24T01:42:50;99615.31;;;27.23;46.91
45253;BME280;63171;50.520;30.486;2023-06-24T01:43:42;99616.97;;;27.24;46.73
45253;BME280;63171;50.520;30.486;2023-06-24T01:44:33;99624.00;;;27.25;46.90
45253;BME280;63171;50.520;30.486;2023-06-24T01:45:28;99623.19;;;27.25;46.97
45253;BME280;63171;50.520;30.486;2023-06-24T01:46:21;99630.41;;;27.24;46.88
45253;BME280;63171;50.520;30.486;2023-06-24T01:47:14;99624.19;;;27.24;46.88
45253;BME280;63171;50.520;30.486;2023-06-24T01:48:08;99632.09;;;27.25;46.76
45253;BME280;63171;50.520;30.486;2023-06-24T01:49:02;99635.38;;;27.27;46.75
45253;BME280;63171;50.520;30.486;2023-06-24T01:49:54;99637.03;;;27.28;46.90
45253;BME280;63171;50.520;30.486;2023-06-24T01:50:54;99639.72;;;27.28;47.10
45253;BME280;63171;50.520;30.486;2023-06-24T01:51:46;99648.00;;;27.27;46.88
45253;BME280;63171;50.520;30.486;2023-06-24T01:52:41;99643.44;;;27.27;47.20
45253;BME280;63171;50.520;30.486;2023-06-24T01:53:34;99639.31;;;27.25;46.90
45253;BME280;63171;50.520;30.486;2023-06-24T01:54:26;99642.84;;;27.25;47.36
45253;BME280;63171;50.520;30.486;2023-06-24T01:55:19;99652.78;;;27.25;47.01
45253;BME280;63171;50.520;30.486;2023-06-24T01:56:14;99645.53;;;27.25;47.30
45253;BME280;63171;50.520;30.486;2023-06-24T01:57:06;99649.03;;;27.26;47.42
45253;BME280;63171;50.520;30.486;2023-06-24T01:58:17;99646.97;;;27.21;47.24
45253;BME280;63171;50.520;30.486;2023-06-24T01:59:10;99649.66;;;27.21;47.39
45253;BME280;63171;50.520;30.486;2023-06-24T02:00:02;99653.16;;;27.22;47.44
45253;BME280;63171;50.520;30.486;2023-06-24T02:01:11;99656.28;;;27.12;47.72
45253;BME280;63171;50.520;30.486;2023-06-24T02:02:05;99651.31;;;27.16;47.65
45253;BME280;63171;50.520;30.486;2023-06-24T02:02:57;99654.84;;;27.16;47.66
45253;BME280;63171;50.520;30.486;2023-06-24T02:03:48;99653.59;;;27.19;47.88
45253;BME280;63171;50.520;30.486;2023-06-24T02:04:39;99658.75;;;27.20;47.72
45253;BME280;63171;50.520;30.486;2023-06-24T02:05:31;99653.38;;;27.20;47.83
45253;BME280;63171;50.520;30.486;2023-06-24T02:06:23;99656.06;;;27.20;47.77
45253;BME280;63171;50.520;30.486;2023-06-24T02:07:15;99654.41;;;27.19;47.87
45253;BME280;63171;50.520;30.486;2023-06-24T02:08:08;99646.97;;;27.21;47.83
45253;BME280;63171;50.520;30.486;2023-06-24T02:09:00;99651.50;;;27.21;48.44
45253;BME280;63171;50.520;30.486;2023-06-24T02:09:51;99656.88;;;27.21;48.36
45253;BME280;63171;50.520;30.486;2023-06-24T02:10:44;99656.88;;;27.21;48.38
45253;BME280;63171;50.520;30.486;2023-06-24T02:11:37;99656.06;;;27.20;48.29
45253;BME280;63171;50.520;30.486;2023-06-24T02:12:28;99653.59;;;27.19;48.47
45253;BME280;63171;50.520;30.486;2023-06-24T02:13:19;99653.59;;;27.19;48.45
45253;BME280;63171;50.520;30.486;2023-06-24T02:14:11;99660.41;;;27.21;48.52
45253;BME280;63171;50.520;30.486;2023-06-24T02:15:03;99664.75;;;27.22;48.64
45253;BME280;63171;50.520;30.486;2023-06-24T02:15:56;99657.31;;;27.18;48.85
45253;BME280;63171;50.520;30.486;2023-06-24T02:16:47;99663.50;;;27.18;49.02
45253;BME280;63171;50.520;30.486;2023-06-24T02:17:39;99664.13;;;27.20;48.83
45253;BME280;63171;50.520;30.486;2023-06-24T02:18:31;99667.44;;;27.22;49.24
45253;BME280;63171;50.520;30.486;2023-06-24T02:19:22;99669.09;;;27.23;49.00
45253;BME280;63171;50.520;30.486;2023-06-24T02:20:14;99661.44;;;27.20;49.27
45253;BME280;63171;50.520;30.486;2023-06-24T02:21:05;99660.81;;;27.18;49.24
45253;BME280;63171;50.520;30.486;2023-06-24T02:21:56;99668.88;;;27.18;49.49
45253;BME280;63171;50.520;30.486;2023-06-24T02:22:48;99667.84;;;27.19;49.51
45253;BME280;63171;50.520;30.486;2023-06-24T02:23:38;99665.59;;;27.16;49.65
45253;BME280;63171;50.520;30.486;2023-06-24T02:24:30;99673.22;;;27.19;49.70
45253;BME280;63171;50.520;30.486;2023-06-24T02:25:20;99669.28;;;27.08;49.71
45253;BME280;63171;50.520;30.486;2023-06-24T02:26:11;99664.75;;;27.09;49.86
45253;BME280;63171;50.520;30.486;2023-06-24T02:27:01;99664.34;;;27.12;50.03
45253;BME280;63171;50.520;30.486;2023-06-24T02:27:53;99669.31;;;27.15;50.20
45253;BME280;63171;50.520;30.486;2023-06-24T02:28:44;99666.41;;;27.17;50.15
45253;BME280;63171;50.520;30.486;2023-06-24T02:29:37;99665.16;;;27.19;50.36
45253;BME280;63171;50.520;30.486;2023-06-24T02:30:28;99673.03;;;27.21;50.45
45253;BME280;63171;50.520;30.486;2023-06-24T02:31:19;99666.00;;;27.13;50.36
45253;BME280;63171;50.520;30.486;2023-06-24T02:32:09;99668.88;;;27.18;50.66
45253;BME280;63171;50.520;30.486;2023-06-24T02:33:00;99669.28;;;27.22;50.87
45253;BME280;63171;50.520;30.486;2023-06-24T02:33:51;99667.03;;;27.19;50.97
45253;BME280;63171;50.520;30.486;2023-06-24T02:34:42;99665.38;;;27.11;51.06
45253;BME280;63171;50.520;30.486;2023-06-24T02:35:32;99665.56;;;27.09;51.11
45253;BME280;63171;50.520;30.486;2023-06-24T02:36:23;99662.69;;;27.04;51.22
45253;BME280;63171;50.520;30.486;2023-06-24T02:37:13;99665.38;;;27.04;51.29
45253;BME280;63171;50.520;30.486;2023-06-24T02:38:04;99668.91;;;27.05;51.33
45253;BME280;63171;50.520;30.486;2023-06-24T02:38:53;99668.91;;;27.05;51.68
45253;BME280;63171;50.520;30.486;2023-06-24T02:39:45;99667.03;;;27.05;51.67
45253;BME280;63171;50.520;30.486;2023-06-24T02:40:34;99675.91;;;26.99;51.83
45253;BME280;63171;50.520;30.486;2023-06-24T02:41:25;99679.81;;;26.97;51.88
45253;BME280;63171;50.520;30.486;2023-06-24T02:42:15;99675.06;;;26.99;52.18
45253;BME280;63171;50.520;30.486;2023-06-24T02:43:06;99670.97;;;27.03;52.22
45253;BME280;63171;50.520;30.486;2023-06-24T02:43:56;99671.59;;;27.05;52.35
45253;BME280;63171;50.520;30.486;2023-06-24T02:44:46;99676.53;;;27.08;52.39
45253;BME280;63171;50.520;30.486;2023-06-24T02:45:37;99675.72;;;27.07;52.46
45253;BME280;63171;50.520;30.486;2023-06-24T02:46:28;99679.84;;;27.10;52.45
45253;BME280;63171;50.520;30.486;2023-06-24T02:47:20;99681.50;;;27.18;52.76
45253;BME280;63171;50.520;30.486;2023-06-24T02:48:11;99680.03;;;27.22;52.79
45253;BME280;63171;50.520;30.486;2023-06-24T02:49:05;99675.28;;;27.24;52.91
45253;BME280;63171;50.520;30.486;2023-06-24T02:49:55;99676.53;;;27.21;52.94
45253;BME280;63171;50.520;30.486;2023-06-24T02:50:48;99672.81;;;27.16;52.97
45253;BME280;63171;50.520;30.486;2023-06-24T02:51:38;99674.06;;;27.13;53.06
45253;BME280;63171;50.520;30.486;2023-06-24T02:52:29;99674.06;;;27.13;53.29
45253;BME280;63171;50.520;30.486;2023-06-24T02:53:19;99663.72;;;27.10;53.10
45253;BME280;63171;50.520;30.486;2023-06-24T02:54:11;99668.91;;;27.12;53.39
45253;BME280;63171;50.520;30.486;2023-06-24T02:55:21;99669.72;;;27.05;53.22
45253;BME280;63171;50.520;30.486;2023-06-24T02:56:16;99675.31;;;27.04;53.73
45253;BME280;63171;50.520;30.486;2023-06-24T02:57:11;99679.22;;;27.08;53.48
45253;BME280;63171;50.520;30.486;2023-06-24T02:58:23;99680.88;;;27.09;53.91
45253;BME280;63171;50.520;30.486;2023-06-24T02:59:24;99686.47;;;27.07;53.84
45253;BME280;63171;50.520;30.486;2023-06-24T03:00:17;99678.19;;;27.09;54.10
45253;BME280;63171;50.520;30.486;2023-06-24T03:01:27;99677.56;;;27.07;54.09
45253;BME280;63171;50.520;30.486;2023-06-24T03:02:20;99674.88;;;27.07;54.21
45253;BME280;63171;50.520;30.486;2023-06-24T03:03:12;99680.91;;;27.02;54.31
45253;BME280;63171;50.520;30.486;2023-06-24T03:04:10;99686.88;;;27.04;54.54
45253;BME280;63171;50.520;30.486;2023-06-24T03:05:01;99678.59;;;27.06;54.55
45253;BME280;63171;50.520;30.486;2023-06-24T03:05:53;99685.03;;;27.05;54.70
45253;BME280;63171;50.520;30.486;2023-06-24T03:06:47;99676.53;;;27.08;54.84
45253;BME280;63171;50.520;30.486;2023-06-24T03:07:39;99679.84;;;27.10;54.74
45253;BME280;63171;50.520;30.486;2023-06-24T03:08:31;99684.00;;;27.13;55.02
45253;BME280;63171;50.520;30.486;2023-06-24T03:09:21;99688.72;;;27.10;55.03
45253;BME280;63171;50.520;30.486;2023-06-24T03:10:13;99689.56;;;27.11;55.14
45253;BME280;63171;50.520;30.486;2023-06-24T03:11:04;99681.50;;;27.11;55.23
45253;BME280;63171;50.520;30.486;2023-06-24T03:11:57;99682.13;;;27.06;55.13
45253;BME280;63171;50.520;30.486;2023-06-24T03:12:56;99690.00;;;27.01;55.25
45253;BME280;63171;50.520;30.486;2023-06-24T03:13:55;99695.97;;;27.03;55.20
45253;BME280;63171;50.520;30.486;2023-06-24T03:14:47;99692.25;;;26.98;55.21
45253;BME280;63171;50.520;30.486;2023-06-24T03:15:39;99690.81;;;27.02;55.45
45253;BME280;63171;50.520;30.486;2023-06-24T03:16:29;99694.94;;;27.04;55.49
45253;BME280;63171;50.520;30.486;2023-06-24T03:17:25;99698.47;;;27.05;55.73
45253;BME280;63171;50.520;30.486;2023-06-24T03:18:15;99701.97;;;27.05;55.73
45253;BME280;63171;50.520;30.486;2023-06-24T03:19:07;99695.56;;;27.06;55.61
45253;BME280;63171;50.520;30.486;2023-06-24T03:19:59;99702.38;;;27.09;55.82
45253;BME280;63171;50.520;30.486;2023-06-24T03:20:50;99700.72;;;27.08;55.94
45253;BME280;63171;50.520;30.486;2023-06-24T03:21:45;99701.34;;;27.10;55.87
45253;BME280;63171;50.520;30.486;2023-06-24T03:22:38;99692.47;;;27.09;55.97
45253;BME280;63171;50.520;30.486;2023-06-24T03:23:33;99694.31;;;27.09;55.93
45253;BME280;63171;50.520;30.486;2023-06-24T03:24:24;99692.88;;;27.06;56.07
45253;BME280;63171;50.520;30.486;2023-06-24T03:25:14;99692.25;;;27.04;55.95
45253;BME280;63171;50.520;30.486;2023-06-24T03:26:05;99691.00;;;27.00;56.04
45253;BME280;63171;50.520;30.486;2023-06-24T03:26:57;99686.44;;;26.94;56.12
45253;BME280;63171;50.520;30.486;2023-06-24T03:27:53;99689.31;;;26.93;56.35
45253;BME280;63171;50.520;30.486;2023-06-24T03:28:43;99689.94;;;26.88;56.24
45253;BME280;63171;50.520;30.486;2023-06-24T03:29:38;99685.00;;;26.85;56.52
45253;BME280;63171;50.520;30.486;2023-06-24T03:30:36;99685.78;;;26.79;56.76
45253;BME280;63171;50.520;30.486;2023-06-24T03:31:28;99685.78;;;26.79;56.80
45253;BME280;63171;50.520;30.486;2023-06-24T03:32:17;99685.81;;;26.72;56.73
45253;BME280;63171;50.520;30.486;2023-06-24T03:33:09;99690.53;;;26.70;57.02
45253;BME280;63171;50.520;30.486;2023-06-24T03:33:59;99693.03;;;26.72;57.18
45253;BME280;63171;50.520;30.486;2023-06-24T03:34:51;99687.66;;;26.72;57.32
45253;BME280;63171;50.520;30.486;2023-06-24T03:35:42;99689.50;;;26.78;57.33
45253;BME280;63171;50.520;30.486;2023-06-24T03:36:36;99696.13;;;26.82;57.65
45253;BME280;63171;50.520;30.486;2023-06-24T03:37:29;99693.66;;;26.80;57.70
45253;BME280;63171;50.520;30.486;2023-06-24T03:38:19;99699.84;;;26.74;57.51
45253;BME280;63171;50.520;30.486;2023-06-24T03:39:10;99696.75;;;26.77;57.71
45253;BME280;63171;50.520;30.486;2023-06-24T03:40:02;99707.09;;;26.80;57.79
45253;BME280;63171;50.520;30.486;2023-06-24T03:40:53;99701.28;;;26.84;57.99
45253;BME280;63171;50.520;30.486;2023-06-24T03:41:44;99699.44;;;26.84;57.80
45253;BME280;63171;50.520;30.486;2023-06-24T03:42:35;99701.72;;;26.87;58.21
45253;BME280;63171;50.520;30.486;2023-06-24T03:43:26;99702.34;;;26.89;58.10
45253;BME280;63171;50.520;30.486;2023-06-24T03:44:16;99698.41;;;26.92;58.13
45253;BME280;63171;50.520;30.486;2023-06-24T03:45:07;99696.13;;;26.95;58.15
45253;BME280;63171;50.520;30.486;2023-06-24T03:45:57;99697.41;;;26.99;58.26
45253;BME280;63171;50.520;30.486;2023-06-24T03:46:49;99692.84;;;27.00;58.12
45253;BME280;63171;50.520;30.486;2023-06-24T03:47:39;99698.47;;;27.05;58.31
45253;BME280;63171;50.520;30.486;2023-06-24T03:48:30;99690.81;;;27.08;58.24
45253;BME280;63171;50.520;30.486;2023-06-24T03:49:20;99697.03;;;27.16;58.23
45253;BME280;63171;50.520;30.486;2023-06-24T03:50:11;99694.94;;;27.24;58.27
45253;BME280;63171;50.520;30.486;2023-06-24T03:51:03;99693.09;;;27.31;58.35
45253;BME280;63171;50.520;30.486;2023-06-24T03:51:54;99696.59;;;27.38;58.25
45253;BME280;63171;50.520;30.486;2023-06-24T03:52:44;99688.72;;;27.44;58.10
45253;BME280;63171;50.520;30.486;2023-06-24T03:53:35;99683.75;;;27.47;58.00
45253;BME280;63171;50.520;30.486;2023-06-24T03:54:25;99677.53;;;27.53;58.04
45253;BME280;63171;50.520;30.486;2023-06-24T03:55:15;99676.50;;;27.54;57.88
45253;BME280;63171;50.520;30.486;2023-06-24T03:56:06;99674.44;;;27.56;57.84
45253;BME280;63171;50.520;30.486;2023-06-24T03:56:55;99674.66;;;27.55;57.74
45253;BME280;63171;50.520;30.486;2023-06-24T03:57:46;99669.25;;;27.48;57.54
45253;BME280;63171;50.520;30.486;2023-06-24T03:58:36;99673.38;;;27.57;57.56
45253;BME280;63171;50.520;30.486;2023-06-24T03:59:26;99664.50;;;27.57;57.55
45253;BME280;63171;50.520;30.486;2023-06-24T04:00:19;99669.66;;;27.58;57.76
45253;BME280;63171;50.520;30.486;2023-06-24T04:01:10;99665.94;;;27.59;57.77
45253;BME280;63171;50.520;30.486;2023-06-24T04:02:00;99664.69;;;27.62;57.57
45253;BME280;63171;50.520;30.486;2023-06-24T04:02:51;99673.00;;;27.67;57.34
45253;BME280;63171;50.520;30.486;2023-06-24T04:03:41;99677.09;;;27.63;57.25
45253;BME280;63171;50.520;30.486;2023-06-24T04:04:32;99678.34;;;27.60;57.30
45253;BME280;63171;50.520;30.486;2023-06-24T04:05:22;99674.66;;;27.55;57.27
45253;BME280;63171;50.520;30.486;2023-06-24T04:06:15;99684.16;;;27.57;57.26
45253;BME280;63171;50.520;30.486;2023-06-24T04:07:05;99691.41;;;27.57;57.13
45253;BME280;63171;50.520;30.486;2023-06-24T04:07:55;99683.53;;;27.55;57.00
45253;BME280;63171;50.520;30.486;2023-06-24T04:08:45;99683.31;;;27.50;57.03
45253;BME280;63171;50.520;30.486;2023-06-24T04:09:38;99694.91;;;27.51;57.16
45253;BME280;63171;50.520;30.486;2023-06-24T04:10:28;99697.81;;;27.49;57.11
45253;BME280;63171;50.520;30.486;2023-06-24T04:11:19;99690.38;;;27.51;56.95
45253;BME280;63171;50.520;30.486;2023-06-24T04:12:09;99698.63;;;27.50;57.03
45253;BME280;63171;50.520;30.486;2023-06-24T04:12:59;99698.25;;;27.39;57.05
45253;BME280;63171;50.520;30.486;2023-06-24T04:13:50;99694.72;;;27.32;56.98
45253;BME280;63171;50.520;30.486;2023-06-24T04:14:41;99694.34;;;27.29;57.10
45253;BME280;63171;50.520;30.486;2023-06-24T04:15:30;99695.97;;;27.23;57.11
45253;BME280;63171;50.520;30.486;2023-06-24T04:16:20;99697.63;;;27.11;57.03
45253;BME280;63171;50.520;30.486;2023-06-24T04:17:11;99693.72;;;27.14;57.33
45253;BME280;63171;50.520;30.486;2023-06-24T04:18:01;99691.00;;;27.20;57.54
45253;BME280;63171;50.520;30.486;2023-06-24T04:18:52;99695.16;;;27.23;57.54
45253;BME280;63171;50.520;30.486;2023-06-24T04:19:41;99690.41;;;27.12;57.62
45253;BME280;63171;50.520;30.486;2023-06-24T04:20:33;99683.97;;;27.06;57.90
45253;BME280;63171;50.520;30.486;2023-06-24T04:21:24;99688.34;;;27.14;58.19
45253;BME280;63171;50.520;30.486;2023-06-24T04:22:15;99679.84;;;27.17;58.07
45253;BME280;63171;50.520;30.486;2023-06-24T04:23:05;99682.13;;;27.20;58.04
45253;BME280;63171;50.520;30.486;2023-06-24T04:23:58;99676.94;;;27.18;57.94
45253;BME280;63171;50.520;30.486;2023-06-24T04:24:48;99668.06;;;27.11;58.07
45253;BME280;63171;50.520;30.486;2023-06-24T04:25:40;99676.75;;;27.06;58.08
45253;BME280;63171;50.520;30.486;2023-06-24T04:26:30;99678.41;;;27.07;58.09
45253;BME280;63171;50.520;30.486;2023-06-24T04:27:21;99669.31;;;27.02;57.99
45253;BME280;63171;50.520;30.486;2023-06-24T04:28:11;99670.75;;;27.04;58.25
45253;BME280;63171;50.520;30.486;2023-06-24T04:29:01;99673.03;;;27.07;58.29
45253;BME280;63171;50.520;30.486;2023-06-24T04:29:51;99681.94;;;27.15;58.31
45253;BME280;63171;50.520;30.486;2023-06-24T04:30:42;99680.50;;;27.12;58.51
45253;BME280;63171;50.520;30.486;2023-06-24T04:31:32;99688.53;;;27.19;58.34
45253;BME280;63171;50.520;30.486;2023-06-24T04:32:23;99685.44;;;27.22;58.56
45253;BME280;63171;50.520;30.486;2023-06-24T04:33:13;99690.41;;;27.25;58.43
45253;BME280;63171;50.520;30.486;2023-06-24T04:34:04;99691.22;;;27.32;58.23
45253;BME280;63171;50.520;30.486;2023-06-24T04:34:55;99682.72;;;27.35;58.50
45253;BME280;63171;50.520;30.486;2023-06-24T04:35:46;99684.19;;;27.31;58.43
45253;BME280;63171;50.520;30.486;2023-06-24T04:36:38;99689.16;;;27.34;58.46
45253;BME280;63171;50.520;30.486;2023-06-24T04:37:29;99687.69;;;27.31;58.41